Gardar, North Dakota
Current Conditions -  °F | °C
As of 10:35 AM on Saturday 22 Nov 2014 (Local Time) from K2C8 Reporting Station
Haze Haze  
Wind Chill: 27°   Ceiling: 500
Heat Index: 32°   Visibility: 3mi
Dew Point: 32°   Wind: 5mph
Humidity: 100%   Direction: 60°ENE
Pressure: 29.57"   Gusts: NA
Location:  48.4822°N, 97.9139°W
Report Text: K2C8 221635Z AUTO 06004KT 3SM BR OVC005 00/00 A2957 RMK AO2
Loading
Personal Weather Stations






























Interactive Weather Map New forecast layout! Learn more

10-Day Weather Forecast

Advertisements
Track Severe Weather on mobile